sensor_id;sensor_type;location;lat;lon;timestamp;pressure;altitude;pressure_sealevel;temperature;humidity
6034;BME280;3045;43.226;27.858;2023-02-19T00:01:23;149165.13;;;12.44;100.00
6034;BME280;3045;43.226;27.858;2023-02-19T00:03:52;149155.00;;;12.40;100.00
6034;BME280;3045;43.226;27.858;2023-02-19T00:06:22;149165.13;;;12.44;100.00
6034;BME280;3045;43.226;27.858;2023-02-19T00:08:49;149149.97;;;12.38;100.00
6034;BME280;3045;43.226;27.858;2023-02-19T00:11:18;149157.56;;;12.41;100.00
6034;BME280;3045;43.226;27.858;2023-02-19T00:13:47;149167.69;;;12.45;100.00
6034;BME280;3045;43.226;27.858;2023-02-19T00:16:16;149157.56;;;12.41;100.00
6034;BME280;3045;43.226;27.858;2023-02-19T00:18:43;149147.44;;;12.36;100.00
6034;BME280;3045;43.226;27.858;2023-02-19T00:21:11;149079.09;;;12.09;100.00
6034;BME280;3045;43.226;27.858;2023-02-19T00:23:39;149120.88;;;12.26;100.00
6034;BME280;3045;43.226;27.858;2023-02-19T00:26:08;149079.09;;;12.09;100.00
6034;BME280;3045;43.226;27.858;2023-02-19T00:28:35;149109.47;;;12.21;100.00
6034;BME280;3045;43.226;27.858;2023-02-19T00:31:04;149082.88;;;12.11;100.00
6034;BME280;3045;43.226;27.858;2023-02-19T00:33:32;149085.41;;;12.12;100.00
6034;BME280;3045;43.226;27.858;2023-02-19T00:35:59;149080.34;;;12.10;100.00
6034;BME280;3045;43.226;27.858;2023-02-19T00:38:26;149091.72;;;12.14;100.00
6034;BME280;3045;43.226;27.858;2023-02-19T00:40:54;149096.81;;;12.16;100.00
6034;BME280;3045;43.226;27.858;2023-02-19T00:43:21;149104.41;;;12.19;100.00
6034;BME280;3045;43.226;27.858;2023-02-19T00:45:48;149093.00;;;12.15;100.00
6034;BME280;3045;43.226;27.858;2023-02-19T00:48:15;149106.94;;;12.20;100.00
6034;BME280;3045;43.226;27.858;2023-02-19T00:50:42;149068.94;;;12.05;100.00
6034;BME280;3045;43.226;27.858;2023-02-19T00:53:09;149105.66;;;12.20;100.00
6034;BME280;3045;43.226;27.858;2023-02-19T00:55:36;149099.34;;;12.17;100.00
6034;BME280;3045;43.226;27.858;2023-02-19T00:58:04;149127.19;;;12.28;100.00
6034;BME280;3045;43.226;27.858;2023-02-19T01:00:31;149127.19;;;12.28;100.00
6034;BME280;3045;43.226;27.858;2023-02-19T01:02:58;149132.25;;;12.30;100.00
6034;BME280;3045;43.226;27.858;2023-02-19T01:05:24;149137.31;;;12.32;100.00
6034;BME280;3045;43.226;27.858;2023-02-19T01:07:51;149058.81;;;12.01;100.00
6034;BME280;3045;43.226;27.858;2023-02-19T01:10:18;149141.13;;;12.34;100.00
6034;BME280;3045;43.226;27.858;2023-02-19T01:12:45;149076.56;;;12.08;100.00
6034;BME280;3045;43.226;27.858;2023-02-19T01:15:13;149122.09;;;12.26;100.00
6034;BME280;3045;43.226;27.858;2023-02-19T01:17:40;149111.97;;;12.22;100.00
6034;BME280;3045;43.226;27.858;2023-02-19T01:20:08;149142.41;;;12.34;100.00
6034;BME280;3045;43.226;27.858;2023-02-19T01:22:35;149081.59;;;12.10;100.00
6034;BME280;3045;43.226;27.858;2023-02-19T01:25:02;149167.69;;;12.45;100.00
6034;BME280;3045;43.226;27.858;2023-02-19T01:27:29;149170.22;;;12.46;100.00
6034;BME280;3045;43.226;27.858;2023-02-19T01:29:56;149187.94;;;12.53;100.00
6034;BME280;3045;43.226;27.858;2023-02-19T01:32:24;149190.47;;;12.54;100.00
6034;BME280;3045;43.226;27.858;2023-02-19T01:34:51;149182.88;;;12.51;100.00
6034;BME280;3045;43.226;27.858;2023-02-19T01:37:18;149190.47;;;12.54;100.00
6034;BME280;3045;43.226;27.858;2023-02-19T01:39:45;149184.16;;;12.51;100.00
6034;BME280;3045;43.226;27.858;2023-02-19T01:42:14;149205.69;;;12.60;100.00
6034;BME280;3045;43.226;27.858;2023-02-19T01:47:52;149223.41;;;12.67;100.00
6034;BME280;3045;43.226;27.858;2023-02-19T01:50:22;149203.16;;;12.59;100.00
6034;BME280;3045;43.226;27.858;2023-02-19T01:52:49;149244.91;;;12.75;100.00
6034;BME280;3045;43.226;27.858;2023-02-19T01:55:16;149228.44;;;12.69;100.00
6034;BME280;3045;43.226;27.858;2023-02-19T01:57:45;149223.41;;;12.67;100.00
6034;BME280;3045;43.226;27.858;2023-02-19T02:00:15;149222.13;;;12.66;100.00
6034;BME280;3045;43.226;27.858;2023-02-19T02:02:44;149236.06;;;12.72;100.00
6034;BME280;3045;43.226;27.858;2023-02-19T02:05:22;149242.38;;;12.74;100.00
6034;BME280;3045;43.226;27.858;2023-02-19T02:07:51;149255.06;;;12.79;100.00
6034;BME280;3045;43.226;27.858;2023-02-19T02:10:35;149258.88;;;12.81;100.00
6034;BME280;3045;43.226;27.858;2023-02-19T02:13:02;149253.78;;;12.79;100.00
6034;BME280;3045;43.226;27.858;2023-02-19T02:15:35;149272.75;;;12.87;100.00
6034;BME280;3045;43.226;27.858;2023-02-19T02:18:14;149279.13;;;12.89;100.00
6034;BME280;3045;43.226;27.858;2023-02-19T02:20:57;149266.44;;;12.84;100.00
6034;BME280;3045;43.226;27.858;2023-02-19T02:23:37;149266.44;;;12.84;100.00
6034;BME280;3045;43.226;27.858;2023-02-19T02:26:21;149263.91;;;12.83;100.00
6034;BME280;3045;43.226;27.858;2023-02-19T02:31:48;149244.91;;;12.75;100.00
6034;BME280;3045;43.226;27.858;2023-02-19T02:34:21;149241.09;;;12.74;100.00
6034;BME280;3045;43.226;27.858;2023-02-19T02:36:53;149225.94;;;12.68;100.00
6034;BME280;3045;43.226;27.858;2023-02-19T02:39:23;149223.41;;;12.67;100.00
6034;BME280;3045;43.226;27.858;2023-02-19T02:41:56;149209.44;;;12.61;100.00
6034;BME280;3045;43.226;27.858;2023-02-19T02:44:41;149233.53;;;12.71;100.00
6034;BME280;3045;43.226;27.858;2023-02-19T02:47:32;149225.94;;;12.68;100.00
6034;BME280;3045;43.226;27.858;2023-02-19T02:50:12;149222.13;;;12.66;100.00
6034;BME280;3045;43.226;27.858;2023-02-19T02:52:42;149184.16;;;12.51;100.00
6034;BME280;3045;43.226;27.858;2023-02-19T02:55:30;149163.91;;;12.43;100.00
6034;BME280;3045;43.226;27.858;2023-02-19T02:58:00;149157.56;;;12.41;100.00
6034;BME280;3045;43.226;27.858;2023-02-19T03:00:28;149144.88;;;12.35;100.00
6034;BME280;3045;43.226;27.858;2023-02-19T03:03:24;149127.19;;;12.28;100.00
6034;BME280;3045;43.226;27.858;2023-02-19T03:05:55;149113.25;;;12.23;100.00
6034;BME280;3045;43.226;27.858;2023-02-19T03:08:25;149081.59;;;12.10;100.00
6034;BME280;3045;43.226;27.858;2023-02-19T03:10:56;149110.75;;;12.22;100.00
6034;BME280;3045;43.226;27.858;2023-02-19T03:13:46;149113.25;;;12.23;100.00
6034;BME280;3045;43.226;27.858;2023-02-19T03:16:32;149103.13;;;12.19;100.00
6034;BME280;3045;43.226;27.858;2023-02-19T03:19:21;149046.19;;;11.96;100.00
6034;BME280;3045;43.226;27.858;2023-02-19T03:21:53;149038.56;;;11.93;100.00
6034;BME280;3045;43.226;27.858;2023-02-19T03:24:26;149028.44;;;11.89;100.00
6034;BME280;3045;43.226;27.858;2023-02-19T03:27:11;148993.06;;;11.75;100.00
6034;BME280;3045;43.226;27.858;2023-02-19T03:29:41;148946.19;;;11.56;100.00
6034;BME280;3045;43.226;27.858;2023-02-19T03:32:14;148912.00;;;11.42;100.00
6034;BME280;3045;43.226;27.858;2023-02-19T03:34:48;148838.66;;;11.13;100.00
6034;BME280;3045;43.226;27.858;2023-02-19T03:37:21;148869.00;;;11.25;100.00
6034;BME280;3045;43.226;27.858;2023-02-19T03:39:51;148833.63;;;11.11;100.00
6034;BME280;3045;43.226;27.858;2023-02-19T03:42:30;148813.41;;;11.03;100.00
6034;BME280;3045;43.226;27.858;2023-02-19T03:45:24;148803.25;;;10.99;100.00
6034;BME280;3045;43.226;27.858;2023-02-19T03:47:58;148798.22;;;10.97;100.00
6034;BME280;3045;43.226;27.858;2023-02-19T03:50:35;148795.66;;;10.96;100.00
6034;BME280;3045;43.226;27.858;2023-02-19T03:53:12;148788.09;;;10.93;100.00
6034;BME280;3045;43.226;27.858;2023-02-19T03:55:45;148777.97;;;10.89;100.00
6034;BME280;3045;43.226;27.858;2023-02-19T03:58:19;148769.13;;;10.85;100.00
6034;BME280;3045;43.226;27.858;2023-02-19T04:00:54;148759.03;;;10.81;100.00
6034;BME280;3045;43.226;27.858;2023-02-19T04:03:28;148742.56;;;10.75;100.00
6034;BME280;3045;43.226;27.858;2023-02-19T04:06:00;148718.53;;;10.65;100.00
6034;BME280;3045;43.226;27.858;2023-02-19T04:08:29;148694.56;;;10.56;100.00
6034;BME280;3045;43.226;27.858;2023-02-19T04:10:59;148651.56;;;10.38;100.00
6034;BME280;3045;43.226;27.858;2023-02-19T04:13:29;148573.16;;;10.07;100.00
6034;BME280;3045;43.226;27.858;2023-02-19T04:16:02;148523.91;;;9.87;100.00
6034;BME280;3045;43.226;27.858;2023-02-19T04:18:35;148542.84;;;9.95;100.00
6034;BME280;3045;43.226;27.858;2023-02-19T04:21:06;148573.16;;;10.07;100.00
6034;BME280;3045;43.226;27.858;2023-02-19T04:23:36;148584.53;;;10.12;100.00
6034;BME280;3045;43.226;27.858;2023-02-19T04:26:05;148618.72;;;10.25;100.00
6034;BME280;3045;43.226;27.858;2023-02-19T04:28:32;148618.72;;;10.25;100.00
6034;BME280;3045;43.226;27.858;2023-02-19T04:31:00;148585.81;;;10.12;100.00
6034;BME280;3045;43.226;27.858;2023-02-19T04:33:27;148564.31;;;10.03;100.00
6034;BME280;3045;43.226;27.858;2023-02-19T04:35:54;148582.00;;;10.10;100.00
6034;BME280;3045;43.226;27.858;2023-02-19T04:38:22;148595.97;;;10.16;100.00
6034;BME280;3045;43.226;27.858;2023-02-19T04:40:49;148616.19;;;10.24;100.00
6034;BME280;3045;43.226;27.858;2023-02-19T04:43:16;148628.81;;;10.29;100.00
6034;BME280;3045;43.226;27.858;2023-02-19T04:45:43;148641.47;;;10.34;100.00
6034;BME280;3045;43.226;27.858;2023-02-19T04:48:10;148656.59;;;10.40;100.00
6034;BME280;3045;43.226;27.858;2023-02-19T04:50:37;148665.44;;;10.44;100.00
6034;BME280;3045;43.226;27.858;2023-02-19T04:53:04;148650.31;;;10.38;100.00
6034;BME280;3045;43.226;27.858;2023-02-19T04:55:35;148669.25;;;10.45;100.00
6034;BME280;3045;43.226;27.858;2023-02-19T04:58:02;148680.63;;;10.50;100.00
6034;BME280;3045;43.226;27.858;2023-02-19T05:00:29;148617.44;;;10.25;100.00
6034;BME280;3045;43.226;27.858;2023-02-19T05:02:58;148636.38;;;10.32;100.00
6034;BME280;3045;43.226;27.858;2023-02-19T05:05:25;148649.03;;;10.37;100.00
6034;BME280;3045;43.226;27.858;2023-02-19T05:07:52;148642.75;;;10.35;100.00
6034;BME280;3045;43.226;27.858;2023-02-19T05:10:19;148680.63;;;10.50;100.00
6034;BME280;3045;43.226;27.858;2023-02-19T05:12:47;148640.19;;;10.34;100.00
6034;BME280;3045;43.226;27.858;2023-02-19T05:15:14;148678.09;;;10.49;100.00
6034;BME280;3045;43.226;27.858;2023-02-19T05:17:41;148707.19;;;10.61;100.00
6034;BME280;3045;43.226;27.858;2023-02-19T05:20:08;148747.66;;;10.77;100.00
6034;BME280;3045;43.226;27.858;2023-02-19T05:22:35;148785.56;;;10.92;100.00
6034;BME280;3045;43.226;27.858;2023-02-19T05:25:02;148831.09;;;11.10;100.00
6034;BME280;3045;43.226;27.858;2023-02-19T05:27:29;148833.63;;;11.11;100.00
6034;BME280;3045;43.226;27.858;2023-02-19T05:29:58;148836.13;;;11.12;100.00
6034;BME280;3045;43.226;27.858;2023-02-19T05:32:24;148899.34;;;11.37;100.00
6034;BME280;3045;43.226;27.858;2023-02-19T05:34:51;148923.41;;;11.47;100.00
6034;BME280;3045;43.226;27.858;2023-02-19T05:37:18;149024.69;;;11.87;100.00
6034;BME280;3045;43.226;27.858;2023-02-19T05:39:45;149110.75;;;12.22;100.00
6034;BME280;3045;43.226;27.858;2023-02-19T05:42:13;149196.78;;;12.56;100.00
6034;BME280;3045;43.226;27.858;2023-02-19T05:44:40;149249.97;;;12.77;100.00
6034;BME280;3045;43.226;27.858;2023-02-19T05:47:09;149290.53;;;12.94;98.29
6034;BME280;3045;43.226;27.858;2023-02-19T05:49:36;149365.28;;;13.23;96.00
6034;BME280;3045;43.226;27.858;2023-02-19T05:52:03;149358.94;;;13.21;93.35
6034;BME280;3045;43.226;27.858;2023-02-19T05:54:30;149547.72;;;13.96;90.54
6034;BME280;3045;43.226;27.858;2023-02-19T05:56:57;149641.56;;;14.34;86.52
6034;BME280;3045;43.226;27.858;2023-02-19T05:59:25;149718.91;;;14.64;82.68
6034;BME280;3045;43.226;27.858;2023-02-19T06:01:53;149890.16;;;15.33;78.52
6034;BME280;3045;43.226;27.858;2023-02-19T06:04:21;149990.47;;;15.73;75.07
6034;BME280;3045;43.226;27.858;2023-02-19T06:06:48;150070.41;;;16.05;74.19
6034;BME280;3045;43.226;27.858;2023-02-19T06:09:15;150160.56;;;16.40;71.85
6034;BME280;3045;43.226;27.858;2023-02-19T06:11:42;150250.75;;;16.76;69.98
6034;BME280;3045;43.226;27.858;2023-02-19T06:14:11;150315.53;;;17.02;68.89
6034;BME280;3045;43.226;27.858;2023-02-19T06:16:38;150357.47;;;17.19;66.91
6034;BME280;3045;43.226;27.858;2023-02-19T06:19:05;150433.69;;;17.49;64.95
6034;BME280;3045;43.226;27.858;2023-02-19T06:21:33;150306.66;;;16.99;65.02
6034;BME280;3045;43.226;27.858;2023-02-19T06:24:04;150286.34;;;16.90;65.74
6034;BME280;3045;43.226;27.858;2023-02-19T06:26:31;150311.75;;;17.01;66.20
6034;BME280;3045;43.226;27.858;2023-02-19T06:28:58;150222.81;;;16.65;66.33
6034;BME280;3045;43.226;27.858;2023-02-19T06:31:25;150253.31;;;16.77;66.58
6034;BME280;3045;43.226;27.858;2023-02-19T06:33:52;150240.59;;;16.72;66.60
6034;BME280;3045;43.226;27.858;2023-02-19T06:36:20;150290.16;;;16.92;66.12
6034;BME280;3045;43.226;27.858;2023-02-19T06:38:48;150352.41;;;17.17;65.13
6034;BME280;3045;43.226;27.858;2023-02-19T06:41:16;150404.50;;;17.38;64.34
6034;BME280;3045;43.226;27.858;2023-02-19T06:43:43;150389.22;;;17.31;64.80
6034;BME280;3045;43.226;27.858;2023-02-19T06:46:11;150421.00;;;17.44;64.39
6034;BME280;3045;43.226;27.858;2023-02-19T06:48:44;150399.38;;;17.35;64.42
6034;BME280;3045;43.226;27.858;2023-02-19T06:51:12;150413.38;;;17.41;64.23
6034;BME280;3045;43.226;27.858;2023-02-19T06:53:39;150362.56;;;17.21;64.92
6034;BME280;3045;43.226;27.858;2023-02-19T06:56:21;150391.78;;;17.32;65.14
6034;BME280;3045;43.226;27.858;2023-02-19T06:58:49;150371.44;;;17.24;64.92
6034;BME280;3045;43.226;27.858;2023-02-19T07:01:16;150414.66;;;17.42;64.76
6034;BME280;3045;43.226;27.858;2023-02-19T07:03:42;150326.97;;;17.07;65.84
6034;BME280;3045;43.226;27.858;2023-02-19T07:06:09;150424.81;;;17.46;65.15
6034;BME280;3045;43.226;27.858;2023-02-19T07:08:36;150451.53;;;17.56;64.15
6034;BME280;3045;43.226;27.858;2023-02-19T07:11:03;150506.19;;;17.78;63.73
6034;BME280;3045;43.226;27.858;2023-02-19T07:13:32;150530.34;;;17.88;63.64
6034;BME280;3045;43.226;27.858;2023-02-19T07:16:02;150485.84;;;17.70;63.77
6034;BME280;3045;43.226;27.858;2023-02-19T07:18:30;150531.63;;;17.88;63.68
6034;BME280;3045;43.226;27.858;2023-02-19T07:21:01;150576.13;;;18.06;63.58
6034;BME280;3045;43.226;27.858;2023-02-19T07:23:28;150571.00;;;18.04;63.42
6034;BME280;3045;43.226;27.858;2023-02-19T07:25:55;150672.75;;;18.44;62.49
6034;BME280;3045;43.226;27.858;2023-02-19T07:28:22;150738.94;;;18.70;61.05
6034;BME280;3045;43.226;27.858;2023-02-19T07:30:50;150746.56;;;18.74;60.67
6034;BME280;3045;43.226;27.858;2023-02-19T07:33:17;150730.06;;;18.67;59.60
6034;BME280;3045;43.226;27.858;2023-02-19T07:35:45;150855.97;;;19.17;58.50
6034;BME280;3045;43.226;27.858;2023-02-19T07:38:15;150883.97;;;19.28;58.15
6034;BME280;3045;43.226;27.858;2023-02-19T07:40:49;150923.44;;;19.44;57.02
6034;BME280;3045;43.226;27.858;2023-02-19T07:43:16;150975.66;;;19.65;56.02
6034;BME280;3045;43.226;27.858;2023-02-19T07:45:43;150990.91;;;19.71;55.69
6034;BME280;3045;43.226;27.858;2023-02-19T07:48:12;151068.56;;;20.01;55.02
6034;BME280;3045;43.226;27.858;2023-02-19T07:50:39;151045.66;;;19.92;55.02
6034;BME280;3045;43.226;27.858;2023-02-19T07:53:06;150965.44;;;19.60;55.00
6034;BME280;3045;43.226;27.858;2023-02-19T07:55:33;150751.63;;;18.76;56.91
6034;BME280;3045;43.226;27.858;2023-02-19T07:58:00;150826.69;;;19.05;57.06
6034;BME280;3045;43.226;27.858;2023-02-19T08:00:27;150961.66;;;19.59;55.87
6034;BME280;3045;43.226;27.858;2023-02-19T08:02:54;151082.59;;;20.07;54.54
6034;BME280;3045;43.226;27.858;2023-02-19T08:05:27;151194.66;;;20.51;53.38
6034;BME280;3045;43.226;27.858;2023-02-19T08:07:55;151215.03;;;20.60;53.25
6034;BME280;3045;43.226;27.858;2023-02-19T08:10:22;151314.41;;;20.99;52.75
6034;BME280;3045;43.226;27.858;2023-02-19T08:13:10;151370.53;;;21.21;52.04
6034;BME280;3045;43.226;27.858;2023-02-19T08:15:48;151431.69;;;21.46;51.07
6034;BME280;3045;43.226;27.858;2023-02-19T08:18:19;151482.66;;;21.66;50.31
6034;BME280;3045;43.226;27.858;2023-02-19T08:20:48;151446.94;;;21.52;50.65
6034;BME280;3045;43.226;27.858;2023-02-19T08:23:15;151617.81;;;22.19;48.81
6034;BME280;3045;43.226;27.858;2023-02-19T08:25:42;151538.75;;;21.88;49.50
6034;BME280;3045;43.226;27.858;2023-02-19T08:28:10;151712.22;;;22.57;48.58
6034;BME280;3045;43.226;27.858;2023-02-19T08:30:39;151643.31;;;22.29;48.33
6034;BME280;3045;43.226;27.858;2023-02-19T08:33:10;151579.56;;;22.04;48.80
6034;BME280;3045;43.226;27.858;2023-02-19T08:35:38;151671.34;;;22.41;48.58
6034;BME280;3045;43.226;27.858;2023-02-19T08:38:08;151737.69;;;22.67;48.00
6034;BME280;3045;43.226;27.858;2023-02-19T08:40:36;151799.00;;;22.91;47.45
6034;BME280;3045;43.226;27.858;2023-02-19T08:43:03;151898.47;;;23.31;46.99
6034;BME280;3045;43.226;27.858;2023-02-19T08:45:31;151875.50;;;23.21;47.03
6034;BME280;3045;43.226;27.858;2023-02-19T08:47:58;151832.13;;;23.04;47.41
6034;BME280;3045;43.226;27.858;2023-02-19T08:50:25;151834.69;;;23.05;47.04
6034;BME280;3045;43.226;27.858;2023-02-19T08:52:52;151770.91;;;22.80;47.06
6034;BME280;3045;43.226;27.858;2023-02-19T08:55:20;152009.56;;;23.75;46.28
6034;BME280;3045;43.226;27.858;2023-02-19T08:57:47;151870.41;;;23.19;46.58
6034;BME280;3045;43.226;27.858;2023-02-19T09:00:15;152047.84;;;23.90;45.70
6034;BME280;3045;43.226;27.858;2023-02-19T09:02:42;152056.75;;;23.93;45.32
6034;BME280;3045;43.226;27.858;2023-02-19T09:05:09;152010.84;;;23.75;45.40
6034;BME280;3045;43.226;27.858;2023-02-19T09:07:36;152144.91;;;24.28;45.09
6034;BME280;3045;43.226;27.858;2023-02-19T09:10:04;152199.84;;;24.50;44.28
6034;BME280;3045;43.226;27.858;2023-02-19T09:12:32;152225.38;;;24.60;44.28
6034;BME280;3045;43.226;27.858;2023-02-19T09:14:59;152286.69;;;24.84;43.75
6034;BME280;3045;43.226;27.858;2023-02-19T09:17:26;152225.38;;;24.60;44.41
6034;BME280;3045;43.226;27.858;2023-02-19T09:19:53;152335.28;;;25.04;43.56
6034;BME280;3045;43.226;27.858;2023-02-19T09:22:20;152342.94;;;25.07;43.15
6034;BME280;3045;43.226;27.858;2023-02-19T09:24:47;152253.47;;;24.71;43.23
6034;BME280;3045;43.226;27.858;2023-02-19T09:27:15;152284.13;;;24.83;43.37
6034;BME280;3045;43.226;27.858;2023-02-19T09:29:44;152279.03;;;24.81;43.46
6034;BME280;3045;43.226;27.858;2023-02-19T09:32:11;152345.50;;;25.08;43.02
6034;BME280;3045;43.226;27.858;2023-02-19T09:34:38;152455.34;;;25.51;42.47
6034;BME280;3045;43.226;27.858;2023-02-19T09:37:06;152428.56;;;25.40;42.39
6034;BME280;3045;43.226;27.858;2023-02-19T09:39:34;152417.03;;;25.36;42.21
6034;BME280;3045;43.226;27.858;2023-02-19T09:42:03;152381.25;;;25.22;42.73
6034;BME280;3045;43.226;27.858;2023-02-19T09:44:38;152388.97;;;25.25;42.27
6034;BME280;3045;43.226;27.858;2023-02-19T09:47:14;152313.59;;;24.95;42.25
6034;BME280;3045;43.226;27.858;2023-02-19T09:49:43;152449.00;;;25.48;41.74
6034;BME280;3045;43.226;27.858;2023-02-19T09:52:18;152589.63;;;26.04;41.30
6034;BME280;3045;43.226;27.858;2023-02-19T09:54:50;152667.69;;;26.35;40.71
6034;BME280;3045;43.226;27.858;2023-02-19T09:57:22;152873.59;;;27.16;39.76
6034;BME280;3045;43.226;27.858;2023-02-19T09:59:52;152754.59;;;26.69;39.77
6034;BME280;3045;43.226;27.858;2023-02-19T10:02:26;152676.63;;;26.39;40.33
6034;BME280;3045;43.226;27.858;2023-02-19T10:04:56;152616.44;;;26.15;40.55
6034;BME280;3045;43.226;27.858;2023-02-19T10:07:25;152741.84;;;26.64;39.88
6034;BME280;3045;43.226;27.858;2023-02-19T10:09:59;152708.59;;;26.51;39.86
6034;BME280;3045;43.226;27.858;2023-02-19T10:12:29;152651.03;;;26.28;40.14
6034;BME280;3045;43.226;27.858;2023-02-19T10:15:02;152377.44;;;25.20;41.04
6034;BME280;3045;43.226;27.858;2023-02-19T10:17:32;152144.91;;;24.28;42.23
6034;BME280;3045;43.226;27.858;2023-02-19T10:20:01;152023.63;;;23.80;43.40
6034;BME280;3045;43.226;27.858;2023-02-19T10:22:30;152013.41;;;23.76;43.82
6034;BME280;3045;43.226;27.858;2023-02-19T10:24:58;151903.59;;;23.33;44.60
6034;BME280;3045;43.226;27.858;2023-02-19T10:27:26;151770.91;;;22.80;45.40
6034;BME280;3045;43.226;27.858;2023-02-19T10:29:56;151684.13;;;22.46;45.87
6034;BME280;3045;43.226;27.858;2023-02-19T10:32:25;151773.47;;;22.81;45.87
6034;BME280;3045;43.226;27.858;2023-02-19T10:35:11;151837.25;;;23.06;45.58
6034;BME280;3045;43.226;27.858;2023-02-19T10:37:42;151875.50;;;23.21;44.88
6034;BME280;3045;43.226;27.858;2023-02-19T10:40:18;151746.66;;;22.70;45.45
6034;BME280;3045;43.226;27.858;2023-02-19T10:42:46;151650.97;;;22.32;46.60
6034;BME280;3045;43.226;27.858;2023-02-19T10:45:18;151531.09;;;21.85;47.28
6034;BME280;3045;43.226;27.858;2023-02-19T10:47:47;151531.09;;;21.85;47.49
6034;BME280;3045;43.226;27.858;2023-02-19T10:50:25;151745.41;;;22.70;46.29
6034;BME280;3045;43.226;27.858;2023-02-19T10:52:54;151797.72;;;22.91;45.74
6034;BME280;3045;43.226;27.858;2023-02-19T10:55:29;151885.72;;;23.26;45.11
6034;BME280;3045;43.226;27.858;2023-02-19T10:57:56;151878.06;;;23.22;44.74
6034;BME280;3045;43.226;27.858;2023-02-19T11:00:25;152088.72;;;24.06;43.97
6034;BME280;3045;43.226;27.858;2023-02-19T11:03:18;152304.59;;;24.91;42.36
6034;BME280;3045;43.226;27.858;2023-02-19T11:05:56;152617.75;;;26.15;40.86
6034;BME280;3045;43.226;27.858;2023-02-19T11:08:25;152578.13;;;26.00;40.34
6034;BME280;3045;43.226;27.858;2023-02-19T11:10:52;152629.28;;;26.20;40.30
6034;BME280;3045;43.226;27.858;2023-02-19T11:13:25;152601.13;;;26.09;40.37
6034;BME280;3045;43.226;27.858;2023-02-19T11:15:56;152805.81;;;26.90;39.27
6034;BME280;3045;43.226;27.858;2023-02-19T11:18:24;152758.44;;;26.71;39.16
6034;BME280;3045;43.226;27.858;2023-02-19T11:20:55;152986.25;;;27.61;38.68
6034;BME280;3045;43.226;27.858;2023-02-19T11:23:26;153317.88;;;28.92;37.09
6034;BME280;3045;43.226;27.858;2023-02-19T11:25:56;153171.88;;;28.34;37.09
6034;BME280;3045;43.226;27.858;2023-02-19T11:28:30;152876.16;;;27.17;38.88
6034;BME280;3045;43.226;27.858;2023-02-19T11:31:13;152735.41;;;26.62;39.04
6034;BME280;3045;43.226;27.858;2023-02-19T11:33:44;152240.69;;;24.66;40.57
6034;BME280;3045;43.226;27.858;2023-02-19T11:36:27;151931.72;;;23.44;43.34
6034;BME280;3045;43.226;27.858;2023-02-19T11:38:55;151731.34;;;22.64;44.86
6034;BME280;3045;43.226;27.858;2023-02-19T11:41:35;151515.78;;;21.79;46.56
6034;BME280;3045;43.226;27.858;2023-02-19T11:44:17;151449.50;;;21.53;48.18
6034;BME280;3045;43.226;27.858;2023-02-19T11:46:56;151466.09;;;21.59;48.56
6034;BME280;3045;43.226;27.858;2023-02-19T11:49:38;151434.25;;;21.47;49.22
6034;BME280;3045;43.226;27.858;2023-02-19T11:52:25;151401.09;;;21.33;50.13
6034;BME280;3045;43.226;27.858;2023-02-19T11:55:02;151385.78;;;21.27;49.32
6034;BME280;3045;43.226;27.858;2023-02-19T11:57:39;151344.97;;;21.11;49.75
6034;BME280;3045;43.226;27.858;2023-02-19T12:00:23;151320.75;;;21.02;50.25
6034;BME280;3045;43.226;27.858;2023-02-19T12:03:01;151271.09;;;20.82;50.71
6034;BME280;3045;43.226;27.858;2023-02-19T12:05:43;151288.91;;;20.89;51.22
6034;BME280;3045;43.226;27.858;2023-02-19T12:11:36;151297.81;;;20.92;50.84
6034;BME280;3045;43.226;27.858;2023-02-19T12:14:29;151313.13;;;20.98;49.86
6034;BME280;3045;43.226;27.858;2023-02-19T12:17:07;151322.03;;;21.02;50.49
6034;BME280;3045;43.226;27.858;2023-02-19T12:19:57;151274.94;;;20.83;50.40
6034;BME280;3045;43.226;27.858;2023-02-19T12:22:30;151248.16;;;20.73;50.49
6034;BME280;3045;43.226;27.858;2023-02-19T12:25:15;151192.09;;;20.50;50.83
6034;BME280;3045;43.226;27.858;2023-02-19T12:28:03;151148.81;;;20.33;50.80
6034;BME280;3045;43.226;27.858;2023-02-19T12:30:52;151105.47;;;20.16;51.39
6034;BME280;3045;43.226;27.858;2023-02-19T12:36:49;151054.56;;;19.96;52.78
6034;BME280;3045;43.226;27.858;2023-02-19T12:39:28;151049.47;;;19.94;53.54
6034;BME280;3045;43.226;27.858;2023-02-19T12:42:05;151043.09;;;19.91;53.61
6034;BME280;3045;43.226;27.858;2023-02-19T12:44:39;151002.38;;;19.75;53.54
6034;BME280;3045;43.226;27.858;2023-02-19T12:47:15;150952.75;;;19.55;53.63
6034;BME280;3045;43.226;27.858;2023-02-19T12:49:49;150934.91;;;19.48;53.54
6034;BME280;3045;43.226;27.858;2023-02-19T12:52:21;150957.81;;;19.57;54.10
6034;BME280;3045;43.226;27.858;2023-02-19T12:54:52;150978.16;;;19.66;54.61
6034;BME280;3045;43.226;27.858;2023-02-19T12:57:23;150910.72;;;19.39;54.77
6034;BME280;3045;43.226;27.858;2023-02-19T12:59:54;150970.53;;;19.63;54.67
6034;BME280;3045;43.226;27.858;2023-02-19T13:02:32;150956.53;;;19.57;54.64
6034;BME280;3045;43.226;27.858;2023-02-19T13:05:01;150996.03;;;19.73;54.76
6034;BME280;3045;43.226;27.858;2023-02-19T13:07:36;151010.00;;;19.78;54.35
6034;BME280;3045;43.226;27.858;2023-02-19T13:10:18;151034.19;;;19.88;53.99
6034;BME280;3045;43.226;27.858;2023-02-19T13:12:49;151027.84;;;19.85;54.66
6034;BME280;3045;43.226;27.858;2023-02-19T13:15:20;151011.28;;;19.79;55.03
6034;BME280;3045;43.226;27.858;2023-02-19T13:17:51;151018.88;;;19.82;54.65
6034;BME280;3045;43.226;27.858;2023-02-19T13:20:24;151004.91;;;19.76;54.44
6034;BME280;3045;43.226;27.858;2023-02-19T13:22:59;151034.19;;;19.88;54.06
6034;BME280;3045;43.226;27.858;2023-02-19T13:25:55;151015.09;;;19.80;53.05
6034;BME280;3045;43.226;27.858;2023-02-19T13:28:48;151003.66;;;19.76;53.09